createdAt,value
2018-08-18T00:00:42.802Z,14.20
2018-08-18T00:01:42.795Z,14.22
2018-08-18T00:02:52.198Z,14.23
2018-08-18T00:03:42.776Z,14.18
2018-08-18T00:04:42.762Z,14.19
2018-08-18T00:05:50.708Z,14.18
2018-08-18T00:06:42.735Z,14.20
2018-08-18T00:07:42.764Z,14.18
2018-08-18T00:08:50.730Z,14.15
2018-08-18T00:09:42.702Z,14.05
2018-08-18T00:10:42.694Z,14.13
2018-08-18T00:11:50.260Z,14.07
2018-08-18T00:12:42.704Z,14.15
2018-08-18T00:13:42.667Z,14.11
2018-08-18T00:14:51.817Z,14.05
2018-08-18T00:15:42.638Z,14.08
2018-08-18T00:16:42.664Z,14.13
2018-08-18T00:17:50.344Z,14.07
2018-08-18T00:18:42.609Z,14.08
2018-08-18T00:19:42.643Z,14.05
2018-08-18T00:20:51.384Z,14.01
2018-08-18T00:21:42.578Z,14.04
2018-08-18T00:22:42.560Z,13.97
2018-08-18T00:23:42.562Z,14.05
2018-08-18T00:24:42.593Z,13.94
2018-08-18T00:25:42.566Z,14.04
2018-08-18T00:26:50.408Z,14.05
2018-08-18T00:27:42.508Z,13.94
2018-08-18T00:28:42.496Z,13.97
2018-08-18T00:29:42.480Z,13.98
2018-08-18T00:30:42.526Z,13.98
2018-08-18T00:31:42.470Z,13.98
2018-08-18T00:32:50.454Z,14.03
2018-08-18T00:33:42.454Z,13.98
2018-08-18T00:34:42.428Z,13.93
2018-08-18T00:35:51.514Z,13.97
2018-08-18T00:36:42.407Z,13.94
2018-08-18T00:37:42.440Z,14.04
2018-08-18T00:38:50.014Z,13.94
2018-08-18T00:39:42.371Z,14.12
2018-08-18T00:40:42.392Z,14.12
2018-08-18T00:41:42.332Z,14.03
2018-08-18T00:42:42.333Z,14.16
2018-08-18T00:43:42.345Z,14.03
2018-08-18T00:44:42.311Z,14.12
2018-08-18T00:45:42.310Z,14.11
2018-08-18T00:46:42.275Z,14.07
2018-08-18T00:47:51.559Z,14.07
2018-08-18T00:48:42.296Z,14.00
2018-08-18T00:49:42.247Z,14.00
2018-08-18T00:50:42.264Z,14.04
2018-08-18T00:51:42.224Z,13.94
2018-08-18T00:52:42.236Z,13.95
2018-08-18T00:53:50.071Z,13.93
2018-08-18T00:54:42.227Z,13.98
2018-08-18T00:55:42.187Z,13.97
2018-08-18T00:56:42.175Z,13.95
2018-08-18T00:57:42.207Z,14.08
2018-08-18T00:58:42.164Z,13.94
2018-08-18T00:59:50.109Z,14.07
2018-08-18T01:00:42.161Z,14.05
2018-08-18T01:01:42.117Z,14.04
2018-08-18T01:02:55.687Z,14.05
2018-08-18T01:03:42.099Z,14.03
2018-08-18T01:04:42.102Z,14.08
2018-08-18T01:05:49.705Z,14.12
2018-08-18T01:06:42.064Z,14.05
2018-08-18T01:07:42.086Z,14.13
2018-08-18T01:08:49.748Z,14.13
2018-08-18T01:09:42.028Z,14.08
2018-08-18T01:10:42.024Z,14.13
2018-08-18T01:11:42.205Z,14.05
2018-08-18T01:12:42.082Z,14.16
2018-08-18T01:13:42.033Z,14.18
2018-08-18T01:14:41.985Z,14.13
2018-08-18T01:15:42.042Z,14.16
2018-08-18T01:16:41.950Z,14.18
2018-08-18T01:17:41.974Z,14.13
2018-08-18T01:18:41.940Z,14.04
2018-08-18T01:19:41.955Z,14.05
2018-08-18T01:20:41.910Z,14.08
2018-08-18T01:21:41.903Z,14.08
2018-08-18T01:22:41.928Z,14.18
2018-08-18T01:23:51.302Z,14.16
2018-08-18T01:24:41.858Z,14.05
2018-08-18T01:25:41.852Z,13.98
2018-08-18T01:26:49.828Z,14.01
2018-08-18T01:27:41.819Z,14.08
2018-08-18T01:28:41.818Z,13.95
2018-08-18T01:29:51.872Z,13.97
2018-08-18T01:30:41.816Z,13.97
2018-08-18T01:31:41.773Z,13.97
2018-08-18T01:32:41.769Z,14.04
2018-08-18T01:33:41.762Z,13.95
2018-08-18T01:34:41.787Z,13.97
2018-08-18T01:35:41.739Z,14.03
2018-08-18T01:36:41.730Z,13.93
2018-08-18T01:37:41.719Z,14.01
2018-08-18T01:38:49.381Z,13.89
2018-08-18T01:39:41.713Z,13.97
2018-08-18T01:40:41.667Z,13.93
2018-08-18T01:41:50.939Z,13.94
2018-08-18T01:42:41.653Z,14.05
2018-08-18T01:43:41.651Z,13.97
2018-08-18T01:44:41.639Z,13.97
2018-08-18T01:45:41.622Z,13.94
2018-08-18T01:46:41.609Z,13.93
2018-08-18T01:47:50.983Z,13.98
2018-08-18T01:48:41.582Z,14.03
2018-08-18T01:49:41.577Z,14.00
2018-08-18T01:50:49.504Z,13.97
2018-08-18T01:51:41.589Z,13.97
2018-08-18T01:52:41.576Z,14.01
2018-08-18T01:53:41.550Z,14.00
2018-08-18T01:54:41.516Z,13.93
2018-08-18T01:55:41.514Z,13.97
2018-08-18T01:56:49.034Z,13.97
2018-08-18T01:57:41.517Z,14.01
2018-08-18T01:58:41.485Z,14.01
2018-08-18T01:59:49.062Z,13.98
2018-08-18T02:00:41.482Z,13.98
2018-08-18T02:01:41.442Z,13.94
2018-08-18T02:02:50.623Z,13.98
2018-08-18T02:03:41.422Z,13.89
2018-08-18T02:04:41.412Z,13.94
2018-08-18T02:05:49.120Z,13.93
2018-08-18T02:06:41.386Z,13.91
2018-08-18T02:07:41.412Z,13.87
2018-08-18T02:08:49.664Z,13.94
2018-08-18T02:09:41.354Z,13.89
2018-08-18T02:10:41.354Z,13.86
2018-08-18T02:11:49.190Z,13.83
2018-08-18T02:12:41.350Z,13.91
2018-08-18T02:13:41.298Z,13.85
2018-08-18T02:14:49.221Z,13.80
2018-08-18T02:15:41.290Z,13.82
2018-08-18T02:16:41.262Z,13.85
2018-08-18T02:17:50.765Z,13.86
2018-08-18T02:18:41.243Z,13.83
2018-08-18T02:19:41.228Z,13.83
2018-08-18T02:20:48.788Z,13.89
2018-08-18T02:21:41.219Z,13.80
2018-08-18T02:22:41.240Z,13.83
2018-08-18T02:23:48.822Z,13.87
2018-08-18T02:24:41.192Z,13.85
2018-08-18T02:25:41.168Z,13.85
2018-08-18T02:26:49.854Z,13.89
2018-08-18T02:27:41.274Z,13.82
2018-08-18T02:28:41.130Z,13.87
2018-08-18T02:29:48.891Z,13.86
2018-08-18T02:30:41.104Z,13.85
2018-08-18T02:31:41.084Z,13.83
2018-08-18T02:32:49.446Z,13.83
2018-08-18T02:33:41.073Z,13.79
2018-08-18T02:34:41.052Z,13.82
2018-08-18T02:35:50.459Z,13.78
2018-08-18T02:36:41.041Z,13.79
2018-08-18T02:37:41.032Z,13.71
2018-08-18T02:38:48.980Z,13.67
2018-08-18T02:39:40.996Z,13.73
2018-08-18T02:40:41.018Z,13.71
2018-08-18T02:41:48.527Z,13.57
2018-08-18T02:42:40.973Z,13.65
2018-08-18T02:43:40.961Z,13.68
2018-08-18T02:44:48.549Z,13.58
2018-08-18T02:45:40.973Z,13.58
2018-08-18T02:46:40.919Z,13.68
2018-08-18T02:47:40.916Z,13.58
2018-08-18T02:48:40.898Z,13.58
2018-08-18T02:49:40.903Z,13.60
2018-08-18T02:50:40.929Z,13.55
2018-08-18T02:51:40.876Z,13.58
2018-08-18T02:52:40.871Z,13.62
2018-08-18T02:53:40.864Z,13.68
2018-08-18T02:54:40.872Z,13.67
2018-08-18T02:55:40.878Z,13.57
2018-08-18T02:56:48.594Z,13.60
2018-08-18T02:57:40.813Z,13.60
2018-08-18T02:58:40.794Z,13.60
2018-08-18T02:59:40.783Z,13.54
2018-08-18T03:00:40.816Z,13.64
2018-08-18T03:01:40.765Z,13.47
2018-08-18T03:02:48.634Z,13.57
2018-08-18T03:03:40.736Z,13.46
2018-08-18T03:04:40.728Z,13.49
2018-08-18T03:05:49.212Z,13.50
2018-08-18T03:06:40.707Z,13.40
2018-08-18T03:07:40.696Z,13.49
2018-08-18T03:08:40.677Z,13.43
2018-08-18T03:09:40.672Z,13.43
2018-08-18T03:10:40.699Z,13.42
2018-08-18T03:11:40.649Z,13.31
2018-08-18T03:12:40.672Z,13.28
2018-08-18T03:13:40.620Z,13.26
2018-08-18T03:14:48.206Z,13.30
2018-08-18T03:15:40.595Z,13.40
2018-08-18T03:16:40.609Z,13.45
2018-08-18T03:17:40.597Z,13.31
2018-08-18T03:18:40.558Z,13.40
2018-08-18T03:19:40.554Z,13.31
2018-08-18T03:20:40.543Z,13.42
2018-08-18T03:21:40.517Z,13.39
2018-08-18T03:22:40.549Z,13.36
2018-08-18T03:23:48.224Z,13.28
2018-08-18T03:24:40.491Z,13.23
2018-08-18T03:25:40.482Z,13.21
2018-08-18T03:26:40.461Z,13.16
2018-08-18T03:27:40.489Z,13.20
2018-08-18T03:28:40.437Z,13.26
2018-08-18T03:29:49.773Z,13.13
2018-08-18T03:30:40.424Z,13.21
2018-08-18T03:31:40.416Z,13.27
2018-08-18T03:32:40.397Z,13.03
2018-08-18T03:33:40.387Z,13.05
2018-08-18T03:34:40.393Z,13.05
2018-08-18T03:35:48.277Z,13.06
2018-08-18T03:36:40.351Z,13.06
2018-08-18T03:37:40.337Z,13.02
2018-08-18T03:38:48.330Z,12.99
2018-08-18T03:39:40.368Z,13.05
2018-08-18T03:40:40.312Z,13.05
2018-08-18T03:41:47.861Z,13.05
2018-08-18T03:42:40.292Z,13.03
2018-08-18T03:43:40.278Z,13.06
2018-08-18T03:44:49.427Z,13.01
2018-08-18T03:45:40.260Z,12.99
2018-08-18T03:46:40.244Z,13.03
2018-08-18T03:47:40.239Z,13.02
2018-08-18T03:48:40.224Z,13.06
2018-08-18T03:49:40.274Z,13.09
2018-08-18T03:50:40.206Z,13.06
2018-08-18T03:51:40.186Z,13.05
2018-08-18T03:52:40.185Z,13.02
2018-08-18T03:53:47.929Z,13.06
2018-08-18T03:54:40.190Z,13.17
2018-08-18T03:55:40.182Z,13.06
2018-08-18T03:56:48.020Z,13.11
2018-08-18T03:57:40.122Z,13.16
2018-08-18T03:58:40.112Z,13.05
2018-08-18T03:59:47.996Z,13.19
2018-08-18T04:00:40.120Z,13.28
2018-08-18T04:01:40.138Z,13.24
2018-08-18T04:02:40.055Z,13.12
2018-08-18T04:03:40.053Z,13.20
2018-08-18T04:04:40.028Z,13.28
2018-08-18T04:05:50.565Z,13.27
2018-08-18T04:06:40.019Z,13.16
2018-08-18T04:07:40.015Z,13.16
2018-08-18T04:08:39.985Z,13.19
2018-08-18T04:09:39.973Z,13.20
2018-08-18T04:10:39.997Z,13.26
2018-08-18T04:11:47.556Z,13.23
2018-08-18T04:12:39.971Z,13.17
2018-08-18T04:13:39.929Z,13.26
2018-08-18T04:14:48.586Z,13.23
2018-08-18T04:15:39.959Z,13.17
2018-08-18T04:16:39.891Z,13.26
2018-08-18T04:17:39.885Z,13.13
2018-08-18T04:18:39.873Z,13.11
2018-08-18T04:19:39.865Z,13.09
2018-08-18T04:20:49.135Z,13.17
2018-08-18T04:21:39.833Z,13.09
2018-08-18T04:22:39.836Z,13.13
2018-08-18T04:23:47.660Z,13.19
2018-08-18T04:24:39.810Z,13.21
2018-08-18T04:25:39.820Z,13.19
2018-08-18T04:26:49.228Z,13.12
2018-08-18T04:27:39.779Z,13.21
2018-08-18T04:28:39.766Z,13.24
2018-08-18T04:29:49.269Z,13.16
2018-08-18T04:30:39.787Z,13.26
2018-08-18T04:31:39.744Z,13.28
2018-08-18T04:32:47.270Z,13.28
2018-08-18T04:33:39.718Z,13.28
2018-08-18T04:34:39.701Z,13.33
2018-08-18T04:35:48.823Z,13.43
2018-08-18T04:36:39.675Z,13.45
2018-08-18T04:37:39.672Z,13.40
2018-08-18T04:38:47.334Z,13.47
2018-08-18T04:39:39.639Z,13.52
2018-08-18T04:40:39.659Z,13.49
2018-08-18T04:41:39.626Z,13.49
2018-08-18T04:42:39.614Z,13.58
2018-08-18T04:43:39.640Z,13.57
2018-08-18T04:44:39.588Z,13.65
2018-08-18T04:45:39.615Z,13.65
2018-08-18T04:46:39.565Z,13.71
2018-08-18T04:47:47.364Z,13.71
2018-08-18T04:48:39.543Z,13.82
2018-08-18T04:49:39.522Z,13.85
2018-08-18T04:50:39.644Z,13.86
2018-08-18T04:51:39.497Z,13.86
2018-08-18T04:52:39.492Z,13.86
2018-08-18T04:53:47.394Z,13.95
2018-08-18T04:54:39.463Z,14.01
2018-08-18T04:55:39.507Z,14.05
2018-08-18T04:56:47.463Z,14.11
2018-08-18T04:57:39.421Z,14.11
2018-08-18T04:58:39.419Z,14.22
2018-08-18T04:59:39.413Z,14.26
2018-08-18T05:00:39.433Z,14.28
2018-08-18T05:01:39.397Z,14.28
2018-08-18T05:02:47.503Z,14.30
2018-08-18T05:03:39.356Z,14.36
2018-08-18T05:04:39.352Z,14.34
2018-08-18T05:05:39.347Z,14.40
2018-08-18T05:06:39.364Z,14.49
2018-08-18T05:07:39.313Z,14.51
2018-08-18T05:08:46.998Z,14.53
2018-08-18T05:09:39.306Z,14.63
2018-08-18T05:10:39.284Z,14.63
2018-08-18T05:11:39.390Z,14.71
2018-08-18T05:12:39.266Z,14.67
2018-08-18T05:13:39.254Z,14.71
2018-08-18T05:14:39.249Z,14.81
2018-08-18T05:15:39.244Z,14.81
2018-08-18T05:16:39.284Z,14.86
2018-08-18T05:17:47.532Z,14.85
2018-08-18T05:18:39.194Z,14.82
2018-08-18T05:19:39.184Z,14.82
2018-08-18T05:20:47.056Z,14.87
2018-08-18T05:21:39.186Z,14.90
2018-08-18T05:22:39.182Z,14.94
2018-08-18T05:23:39.129Z,14.99
2018-08-18T05:24:39.118Z,15.08
2018-08-18T05:25:39.118Z,15.14
2018-08-18T05:26:39.113Z,15.12
2018-08-18T05:27:39.122Z,15.23
2018-08-18T05:28:39.118Z,15.25
2018-08-18T05:29:47.091Z,15.26
2018-08-18T05:30:39.059Z,15.32
2018-08-18T05:31:39.035Z,15.30
2018-08-18T05:32:46.631Z,15.25
2018-08-18T05:33:39.073Z,15.32
2018-08-18T05:34:39.025Z,15.30
2018-08-18T05:35:46.662Z,15.27
2018-08-18T05:36:39.090Z,15.27
2018-08-18T05:37:38.976Z,15.29
2018-08-18T05:38:39.002Z,15.36
2018-08-18T05:39:38.964Z,15.35
2018-08-18T05:40:38.946Z,15.41
2018-08-18T05:41:46.694Z,15.43
2018-08-18T05:42:38.928Z,15.50
2018-08-18T05:43:38.956Z,15.57
2018-08-18T05:44:38.902Z,15.48
2018-08-18T05:45:38.897Z,15.48
2018-08-18T05:46:38.880Z,15.50
2018-08-18T05:47:46.736Z,15.52
2018-08-18T05:48:38.886Z,15.57
2018-08-18T05:49:38.851Z,15.60
2018-08-18T05:50:46.772Z,15.54
2018-08-18T05:51:38.824Z,15.62
2018-08-18T05:52:38.818Z,15.59
2018-08-18T05:53:38.840Z,15.66
2018-08-18T05:54:38.790Z,15.62
2018-08-18T05:55:38.800Z,15.66
2018-08-18T05:56:38.756Z,15.63
2018-08-18T05:57:38.751Z,15.62
2018-08-18T05:58:38.743Z,15.76
2018-08-18T05:59:38.795Z,15.78
2018-08-18T06:00:38.763Z,15.83
2018-08-18T06:01:38.702Z,15.87
2018-08-18T06:02:46.289Z,15.87
2018-08-18T06:03:38.683Z,16.00
2018-08-18T06:04:38.664Z,16.06
2018-08-18T06:05:47.891Z,16.10
2018-08-18T06:06:38.640Z,16.10
2018-08-18T06:07:38.641Z,16.13
2018-08-18T06:08:38.615Z,16.13
2018-08-18T06:09:38.651Z,16.16
2018-08-18T06:10:38.609Z,16.26
2018-08-18T06:11:46.362Z,16.36
2018-08-18T06:12:38.609Z,16.41
2018-08-18T06:13:38.593Z,16.39
2018-08-18T06:14:46.403Z,16.36
2018-08-18T06:15:38.597Z,16.36
2018-08-18T06:16:38.529Z,16.41
2018-08-18T06:17:38.521Z,16.44
2018-08-18T06:18:38.551Z,16.57
2018-08-18T06:19:38.519Z,16.76
2018-08-18T06:20:38.502Z,17.13
2018-08-18T06:21:38.530Z,17.84
2018-08-18T06:22:38.476Z,18.58
2018-08-18T06:23:47.962Z,19.29
2018-08-18T06:24:38.452Z,19.89
2018-08-18T06:25:38.446Z,20.44
2018-08-18T06:26:45.992Z,20.88
2018-08-18T06:27:38.431Z,21.30
2018-08-18T06:28:38.447Z,21.44
2018-08-18T06:29:38.402Z,21.56
2018-08-18T06:30:38.396Z,21.97
2018-08-18T06:31:38.362Z,21.91
2018-08-18T06:34:05.242Z,22.58
2018-08-18T06:35:05.215Z,22.77
2018-08-18T06:36:14.511Z,22.71
2018-08-18T06:37:05.181Z,22.91
2018-08-18T06:38:05.170Z,23.18
2018-08-18T06:39:05.172Z,23.42
2018-08-18T06:40:05.180Z,23.55
2018-08-18T06:41:05.260Z,23.69
2018-08-18T06:42:13.017Z,23.70
2018-08-18T06:43:05.127Z,23.67
2018-08-18T06:44:05.106Z,23.40
2018-08-18T06:45:17.087Z,23.47
2018-08-18T06:46:05.101Z,23.62
2018-08-18T06:47:05.062Z,23.63
2018-08-18T06:48:12.597Z,23.88
2018-08-18T06:49:05.033Z,24.28
2018-08-18T06:50:05.027Z,24.61
2018-08-18T06:51:14.169Z,24.59
2018-08-18T06:52:05.001Z,24.48
2018-08-18T06:53:05.000Z,24.50
2018-08-18T06:54:17.736Z,24.65
2018-08-18T06:55:05.162Z,24.79
2018-08-18T06:56:05.019Z,24.78
2018-08-18T06:58:27.858Z,25.03
2018-08-18T07:00:40.631Z,25.16
2018-08-18T07:01:40.627Z,25.39
2018-08-18T07:04:03.435Z,25.25
2018-08-18T07:05:03.380Z,24.88
2018-08-18T07:06:16.735Z,24.97
2018-08-18T07:07:03.388Z,25.19
2018-08-18T07:08:03.352Z,25.49
2018-08-18T07:09:11.208Z,25.67
2018-08-18T07:10:03.324Z,25.77
2018-08-18T07:11:03.312Z,25.41
2018-08-18T07:12:03.340Z,25.36
2018-08-18T07:13:03.302Z,25.26
2018-08-18T07:14:03.269Z,25.26
2018-08-18T07:15:11.230Z,25.51
2018-08-18T07:16:03.248Z,25.59
2018-08-18T07:17:03.277Z,25.44
2018-08-18T07:18:12.267Z,25.62
2018-08-18T07:19:03.219Z,25.85
2018-08-18T07:20:03.195Z,26.24
2018-08-18T07:21:10.778Z,26.73
2018-08-18T07:22:03.182Z,26.86
2018-08-18T07:23:03.173Z,27.20
2018-08-18T07:24:12.332Z,27.10
2018-08-18T07:25:03.149Z,26.89
2018-08-18T07:26:03.148Z,26.61
2018-08-18T07:27:03.127Z,25.83
2018-08-18T07:28:03.149Z,25.48
2018-08-18T07:29:03.221Z,25.26
2018-08-18T07:30:03.087Z,24.78
2018-08-18T07:31:03.140Z,24.19
2018-08-18T07:32:03.082Z,23.84
2018-08-18T07:33:03.060Z,23.55
2018-08-18T07:34:03.056Z,23.48
2018-08-18T07:35:03.039Z,23.20
2018-08-18T07:36:03.078Z,22.92
2018-08-18T07:37:03.082Z,22.46
2018-08-18T07:38:03.016Z,22.15
2018-08-18T07:39:12.441Z,21.81
2018-08-18T07:40:02.984Z,21.63
2018-08-18T07:41:02.978Z,21.38
2018-08-18T07:42:03.013Z,21.47
2018-08-18T07:43:02.957Z,21.38
2018-08-18T07:44:02.986Z,21.45
2018-08-18T07:45:10.913Z,21.43
2018-08-18T07:46:02.918Z,21.53
2018-08-18T07:47:02.960Z,21.59
2018-08-18T07:48:10.511Z,21.91
2018-08-18T07:49:02.922Z,22.26
2018-08-18T07:50:02.880Z,22.52
2018-08-18T07:51:02.869Z,22.99
2018-08-18T07:52:02.920Z,23.21
2018-08-18T07:53:02.921Z,23.14
2018-08-18T07:54:11.460Z,22.83
2018-08-18T07:55:02.820Z,22.58
2018-08-18T07:56:02.810Z,21.97
2018-08-18T07:57:02.835Z,21.60
2018-08-18T07:58:02.791Z,21.54
2018-08-18T07:59:02.780Z,21.35
2018-08-18T08:00:02.903Z,21.26
2018-08-18T08:01:02.784Z,21.28
2018-08-18T08:02:02.741Z,21.14
2018-08-18T08:03:10.497Z,21.04
2018-08-18T08:04:02.710Z,21.00
2018-08-18T08:05:02.799Z,21.29
2018-08-18T08:06:02.718Z,21.38
2018-08-18T08:07:02.674Z,21.29
2018-08-18T08:08:02.664Z,21.19
2018-08-18T08:09:10.525Z,21.11
2018-08-18T08:10:02.646Z,21.11
2018-08-18T08:11:02.660Z,21.15
2018-08-18T08:12:02.657Z,21.07
2018-08-18T08:13:02.654Z,21.20
2018-08-18T08:14:02.648Z,21.10
2018-08-18T08:15:10.550Z,21.19
2018-08-18T08:16:02.578Z,21.22
2018-08-18T08:17:02.570Z,21.25
2018-08-18T08:18:02.594Z,21.20
2018-08-18T08:19:02.549Z,21.32
2018-08-18T08:20:02.543Z,21.41
2018-08-18T08:21:02.576Z,21.37
2018-08-18T08:22:02.524Z,21.41
2018-08-18T08:23:02.573Z,21.48
2018-08-18T08:24:10.087Z,21.50
2018-08-18T08:25:02.486Z,21.53
2018-08-18T08:26:02.491Z,21.48
2018-08-18T08:27:10.127Z,21.48
2018-08-18T08:28:02.450Z,21.56
2018-08-18T08:29:02.483Z,21.40
2018-08-18T08:30:10.157Z,21.30
2018-08-18T08:31:02.431Z,21.44
2018-08-18T08:32:02.406Z,21.50
2018-08-18T08:33:11.730Z,21.58
2018-08-18T08:34:02.390Z,21.60
2018-08-18T08:35:02.372Z,21.65
2018-08-18T08:36:11.253Z,21.68
2018-08-18T08:37:02.352Z,21.74
2018-08-18T08:38:02.344Z,21.83
2018-08-18T08:39:02.386Z,21.70
2018-08-18T08:40:02.319Z,21.75
2018-08-18T08:41:02.355Z,21.78
2018-08-18T08:42:10.276Z,21.78
2018-08-18T08:43:02.290Z,21.80
2018-08-18T08:44:02.278Z,21.69
2018-08-18T08:45:02.271Z,21.88
2018-08-18T08:46:02.308Z,22.15
2018-08-18T08:47:02.252Z,22.33
2018-08-18T08:48:02.259Z,22.19
2018-08-18T08:49:02.310Z,22.10
2018-08-18T08:50:02.278Z,22.19
2018-08-18T08:51:02.194Z,22.19
2018-08-18T08:52:02.375Z,22.26
2018-08-18T08:53:02.174Z,22.22
2018-08-18T08:54:02.364Z,22.28
2018-08-18T08:55:02.200Z,22.28
2018-08-18T08:56:02.155Z,22.28
2018-08-18T08:57:09.809Z,22.18
2018-08-18T08:58:02.109Z,22.30
2018-08-18T08:59:02.193Z,22.26
2018-08-18T09:00:02.102Z,22.25
2018-08-18T09:01:02.106Z,22.28
2018-08-18T09:02:02.179Z,22.31
2018-08-18T09:04:24.970Z,22.56
2018-08-18T09:05:24.874Z,22.63
2018-08-18T09:06:24.885Z,22.78
2018-08-18T09:07:24.860Z,22.68
2018-08-18T09:08:24.890Z,22.71
2018-08-18T09:09:24.916Z,22.91
2018-08-18T09:10:24.875Z,23.20
2018-08-18T09:11:24.854Z,23.39
2018-08-18T09:12:24.820Z,23.47
2018-08-18T09:13:24.788Z,23.48
2018-08-18T09:14:35.177Z,23.42
2018-08-18T09:15:24.768Z,23.17
2018-08-18T09:16:24.770Z,22.99
2018-08-18T09:17:24.800Z,22.88
2018-08-18T09:18:24.778Z,23.47
2018-08-18T09:19:24.731Z,24.11
2018-08-18T09:20:24.769Z,24.88
2018-08-18T09:21:24.714Z,25.52
2018-08-18T09:22:24.689Z,26.11
2018-08-18T09:23:24.718Z,26.71
2018-08-18T09:24:24.672Z,27.26
2018-08-18T09:25:24.737Z,25.85
2018-08-18T09:26:24.689Z,26.08
2018-08-18T09:27:24.670Z,25.91
2018-08-18T09:28:24.625Z,25.26
2018-08-18T09:29:24.618Z,26.51
2018-08-18T09:30:24.664Z,27.79
2018-08-18T09:31:24.618Z,28.71
2018-08-18T09:32:32.159Z,29.43
2018-08-18T09:33:24.570Z,29.87
2018-08-18T09:34:24.580Z,30.08
2018-08-18T09:35:24.565Z,30.14
2018-08-18T09:36:24.643Z,30.11
2018-08-18T09:37:24.521Z,30.20
2018-08-18T09:38:24.511Z,30.44
2018-08-18T09:39:24.502Z,30.29
2018-08-18T09:40:24.488Z,30.76
2018-08-18T09:41:24.509Z,31.15
2018-08-18T09:42:24.463Z,30.76
2018-08-18T09:43:24.454Z,30.48
2018-08-18T09:44:24.448Z,31.23
2018-08-18T09:45:24.473Z,31.73
2018-08-18T09:46:24.505Z,31.57
2018-08-18T09:47:24.426Z,32.44
2018-08-18T09:48:24.408Z,32.98
2018-08-18T09:49:24.489Z,32.97
2018-08-18T09:50:24.384Z,33.08
2018-08-18T09:51:24.423Z,33.12
2018-08-18T09:52:24.389Z,33.09
2018-08-18T09:53:24.377Z,33.01
2018-08-18T09:54:24.350Z,33.01
2018-08-18T09:55:24.350Z,32.56
2018-08-18T09:56:24.380Z,31.50
2018-08-18T09:57:24.357Z,32.02
2018-08-18T09:58:24.303Z,30.51
2018-08-18T09:59:24.414Z,31.18
2018-08-18T10:00:24.281Z,31.48
2018-08-18T10:01:24.277Z,31.90
2018-08-18T10:02:33.749Z,32.17
2018-08-18T10:03:24.468Z,32.63
2018-08-18T10:04:24.245Z,32.44
2018-08-18T10:05:24.247Z,32.76
2018-08-18T10:06:24.233Z,32.88
2018-08-18T10:07:24.216Z,32.61
2018-08-18T10:08:37.792Z,32.00
2018-08-18T10:09:24.199Z,31.69
2018-08-18T10:10:24.184Z,31.90
2018-08-18T10:11:31.806Z,32.44
2018-08-18T10:12:24.161Z,32.88
2018-08-18T10:13:24.212Z,33.12
2018-08-18T10:14:24.151Z,32.97
2018-08-18T10:15:24.192Z,33.15
2018-08-18T10:16:24.134Z,33.28
2018-08-18T10:17:31.833Z,33.50
2018-08-18T10:18:24.136Z,33.67
2018-08-18T10:19:24.092Z,33.32
2018-08-18T10:20:24.087Z,32.78
2018-08-18T10:21:24.106Z,32.95
2018-08-18T10:22:24.062Z,32.79
2018-08-18T10:23:24.054Z,33.20
2018-08-18T10:24:24.311Z,33.23
2018-08-18T10:25:24.053Z,32.81
2018-08-18T10:26:32.056Z,32.56
2018-08-18T10:27:24.137Z,31.48
2018-08-18T10:28:23.993Z,31.14
2018-08-18T10:29:32.452Z,31.20
2018-08-18T10:30:23.976Z,31.82
2018-08-18T10:31:23.976Z,31.57
2018-08-18T10:32:23.946Z,31.47
2018-08-18T10:33:23.985Z,31.62
2018-08-18T10:34:23.931Z,32.31
2018-08-18T10:35:23.968Z,32.61
2018-08-18T10:36:23.965Z,32.93
2018-08-18T10:37:23.910Z,32.53
2018-08-18T10:38:23.895Z,33.12
2018-08-18T10:39:23.881Z,32.08
2018-08-18T10:40:23.914Z,32.08
2018-08-18T10:41:31.423Z,32.20
2018-08-18T10:42:23.883Z,31.90
2018-08-18T10:43:23.850Z,32.20
2018-08-18T10:44:31.456Z,32.61
2018-08-18T10:45:23.819Z,33.00
2018-08-18T10:46:23.816Z,32.67
2018-08-18T10:47:23.845Z,32.11
2018-08-18T10:48:23.809Z,32.00
2018-08-18T10:49:23.795Z,32.45
2018-08-18T10:50:23.782Z,32.76
2018-08-18T10:51:23.772Z,33.28
2018-08-18T10:52:23.810Z,33.65
2018-08-18T10:53:23.756Z,33.61
2018-08-18T10:54:23.758Z,33.75
2018-08-18T10:55:23.739Z,33.77
2018-08-18T10:56:23.786Z,34.19
2018-08-18T10:57:23.770Z,34.32
2018-08-18T10:58:23.714Z,34.59
2018-08-18T10:59:23.700Z,34.79
2018-08-18T11:00:23.693Z,33.76
2018-08-18T11:01:23.705Z,33.01
2018-08-18T11:02:33.028Z,31.60
2018-08-18T11:03:23.649Z,30.13
2018-08-18T11:04:23.640Z,29.18
2018-08-18T11:05:31.517Z,30.43
2018-08-18T11:06:23.627Z,30.93
2018-08-18T11:07:23.645Z,31.44
2018-08-18T11:08:23.652Z,29.79
2018-08-18T11:09:23.591Z,29.00
2018-08-18T11:10:23.577Z,28.59
2018-08-18T11:11:23.569Z,29.92
2018-08-18T11:12:23.563Z,30.99
2018-08-18T11:13:23.610Z,31.93
2018-08-18T11:14:31.543Z,32.00
2018-08-18T11:15:23.595Z,31.23
2018-08-18T11:16:23.519Z,31.08
2018-08-18T11:17:23.508Z,30.01
2018-08-18T11:18:23.483Z,29.50
2018-08-18T11:19:23.477Z,30.36
2018-08-18T11:20:23.524Z,30.51
2018-08-18T11:21:23.456Z,29.80
2018-08-18T11:22:23.459Z,30.18
2018-08-18T11:23:23.448Z,30.98
2018-08-18T11:24:23.450Z,32.01
2018-08-18T11:25:23.463Z,32.17
2018-08-18T11:26:31.075Z,32.09
2018-08-18T11:27:23.399Z,31.89
2018-08-18T11:28:23.408Z,32.01
2018-08-18T11:29:32.113Z,31.72
2018-08-18T11:30:23.426Z,31.23
2018-08-18T11:31:23.356Z,30.96
2018-08-18T11:32:36.201Z,30.88
2018-08-18T11:33:23.342Z,30.65
2018-08-18T11:34:23.327Z,29.84
2018-08-18T11:35:23.360Z,29.49
2018-08-18T11:36:23.343Z,30.35
2018-08-18T11:37:23.522Z,31.26
2018-08-18T11:38:34.307Z,32.01
2018-08-18T11:39:23.283Z,32.15
2018-08-18T11:40:23.268Z,33.28
2018-08-18T11:41:23.297Z,32.15
2018-08-18T11:42:23.270Z,31.74
2018-08-18T11:43:23.260Z,32.35
2018-08-18T11:44:23.289Z,33.31
2018-08-18T11:45:23.226Z,33.51
2018-08-18T11:46:23.253Z,33.82
2018-08-18T11:47:23.194Z,32.59
2018-08-18T11:48:23.198Z,33.50
2018-08-18T11:49:23.194Z,33.85
2018-08-18T11:50:30.782Z,34.16
2018-08-18T11:51:23.227Z,35.05
2018-08-18T11:52:23.149Z,35.30
2018-08-18T11:53:28.000Z,35.52
2018-08-18T11:54:24.593Z,34.60
2018-08-18T11:55:23.112Z,33.89
2018-08-18T11:56:23.151Z,32.63
2018-08-18T11:57:23.149Z,30.96
2018-08-18T11:58:23.090Z,31.51
2018-08-18T11:59:23.074Z,32.11
2018-08-18T12:00:23.197Z,32.49
2018-08-18T12:01:23.094Z,33.19
2018-08-18T12:02:24.028Z,34.00
2018-08-18T12:03:23.053Z,34.04
2018-08-18T12:04:23.023Z,34.10
2018-08-18T12:05:23.003Z,33.91
2018-08-18T12:06:22.995Z,33.39
2018-08-18T12:07:23.015Z,32.56
2018-08-18T12:08:22.995Z,32.56
2018-08-18T12:09:22.974Z,33.04
2018-08-18T12:10:22.983Z,32.01
2018-08-18T12:11:31.308Z,31.92
2018-08-18T12:12:22.951Z,32.01
2018-08-18T12:13:22.981Z,32.09
2018-08-18T12:14:22.939Z,31.37
2018-08-18T12:15:22.924Z,30.80
2018-08-18T12:16:22.911Z,30.48
2018-08-18T12:17:22.905Z,31.70
2018-08-18T12:18:22.939Z,32.57
2018-08-18T12:19:22.883Z,33.20
2018-08-18T12:20:22.913Z,32.85
2018-08-18T12:21:22.865Z,32.88
2018-08-18T12:22:22.847Z,32.64
2018-08-18T12:23:32.378Z,33.05
2018-08-18T12:24:22.823Z,33.36
2018-08-18T12:25:22.828Z,31.90
2018-08-18T12:26:22.811Z,31.86
2018-08-18T12:27:22.803Z,33.33
2018-08-18T12:28:22.817Z,34.19
2018-08-18T12:29:30.959Z,35.19
2018-08-18T12:30:22.769Z,34.43
2018-08-18T12:31:22.745Z,33.13
2018-08-18T12:32:22.749Z,33.17
2018-08-18T12:33:22.768Z,33.22
2018-08-18T12:34:22.786Z,32.59
2018-08-18T12:35:22.729Z,31.78
2018-08-18T12:36:22.746Z,30.73
2018-08-18T12:37:22.748Z,29.58
2018-08-18T12:38:22.675Z,28.41
2018-08-18T12:39:22.718Z,29.77
2018-08-18T12:40:22.655Z,30.89
2018-08-18T12:41:22.654Z,31.05
2018-08-18T12:42:22.632Z,31.72
2018-08-18T12:43:22.659Z,32.34
2018-08-18T12:44:22.663Z,32.56
2018-08-18T12:45:22.654Z,32.31
2018-08-18T12:46:22.580Z,32.59
2018-08-18T12:47:22.697Z,32.59
2018-08-18T12:48:22.566Z,32.64
2018-08-18T12:49:22.576Z,32.73
2018-08-18T12:50:22.542Z,33.65
2018-08-18T12:51:22.548Z,33.55
2018-08-18T12:52:22.562Z,33.70
2018-08-18T12:53:22.510Z,34.37
2018-08-18T12:54:22.510Z,34.76
2018-08-18T12:55:22.551Z,34.71
2018-08-18T12:56:22.506Z,34.38
2018-08-18T12:57:22.502Z,33.91
2018-08-18T12:58:22.581Z,32.90
2018-08-18T12:59:22.459Z,33.32